sensor_id;sensor_type;location;lat;lon;timestamp;pressure;altitude;pressure_sealevel;temperature;humidity
41222;BME280;26952;42.884;23.918;2022-09-09T00:03:49;95930.78;;;16.90;100.00
41222;BME280;26952;42.884;23.918;2022-09-09T00:06:22;95937.75;;;16.91;100.00
41222;BME280;26952;42.884;23.918;2022-09-09T00:14:03;95937.94;;;16.96;100.00
41222;BME280;26952;42.884;23.918;2022-09-09T00:16:36;95940.41;;;16.98;100.00
41222;BME280;26952;42.884;23.918;2022-09-09T00:19:16;95933.88;;;16.87;100.00
41222;BME280;26952;42.884;23.918;2022-09-09T00:24:44;95938.78;;;16.90;100.00
41222;BME280;26952;42.884;23.918;2022-09-09T00:27:31;95936.94;;;16.91;100.00
41222;BME280;26952;42.884;23.918;2022-09-09T00:32:29;95914.53;;;16.85;100.00
41222;BME280;26952;42.884;23.918;2022-09-09T00:35:21;95937.31;;;17.01;100.00
41222;BME280;26952;42.884;23.918;2022-09-09T00:37:48;95922.31;;;17.00;100.00
41222;BME280;26952;42.884;23.918;2022-09-09T00:41:14;95915.91;;;17.01;100.00
41222;BME280;26952;42.884;23.918;2022-09-09T00:43:36;95910.19;;;16.97;100.00
41222;BME280;26952;42.884;23.918;2022-09-09T00:49:08;95902.16;;;17.04;100.00
41222;BME280;26952;42.884;23.918;2022-09-09T00:52:08;95896.97;;;17.02;100.00
41222;BME280;26952;42.884;23.918;2022-09-09T00:57:34;95856.13;;;16.82;100.00
41222;BME280;26952;42.884;23.918;2022-09-09T01:00:16;95882.22;;;16.93;100.00
41222;BME280;26952;42.884;23.918;2022-09-09T01:05:42;95861.72;;;16.74;100.00
41222;BME280;26952;42.884;23.918;2022-09-09T01:11:01;95886.19;;;16.78;100.00
41222;BME280;26952;42.884;23.918;2022-09-09T01:13:32;95880.84;;;16.78;100.00
41222;BME280;26952;42.884;23.918;2022-09-09T01:16:00;95897.88;;;16.83;100.00
41222;BME280;26952;42.884;23.918;2022-09-09T01:18:30;95893.38;;;16.77;100.00
41222;BME280;26952;42.884;23.918;2022-09-09T01:24:00;95900.31;;;16.91;100.00
41222;BME280;26952;42.884;23.918;2022-09-09T01:26:41;95891.28;;;16.86;100.00
41222;BME280;26952;42.884;23.918;2022-09-09T01:29:09;95896.44;;;16.87;100.00
41222;BME280;26952;42.884;23.918;2022-09-09T01:34:21;95873.19;;;16.75;100.00
41222;BME280;26952;42.884;23.918;2022-09-09T01:36:57;95884.13;;;16.67;100.00
41222;BME280;26952;42.884;23.918;2022-09-09T01:39:24;95848.63;;;16.46;100.00
41222;BME280;26952;42.884;23.918;2022-09-09T01:41:50;95867.28;;;16.66;100.00
41222;BME280;26952;42.884;23.918;2022-09-09T01:44:16;95891.50;;;16.84;100.00
41222;BME280;26952;42.884;23.918;2022-09-09T01:46:43;95894.78;;;16.86;100.00
41222;BME280;26952;42.884;23.918;2022-09-09T01:49:08;95885.75;;;16.87;100.00
41222;BME280;26952;42.884;23.918;2022-09-09T01:51:36;95878.34;;;16.83;100.00
41222;BME280;26952;42.884;23.918;2022-09-09T01:54:03;95876.28;;;16.78;100.00
41222;BME280;26952;42.884;23.918;2022-09-09T02:09:41;95891.53;;;16.71;100.00
41222;BME280;26952;42.884;23.918;2022-09-09T02:12:14;95880.03;;;16.64;100.00
41222;BME280;26952;42.884;23.918;2022-09-09T02:14:47;95896.88;;;16.71;100.00
41222;BME280;26952;42.884;23.918;2022-09-09T02:17:19;95895.66;;;16.67;100.00
41222;BME280;26952;42.884;23.918;2022-09-09T02:19:50;95874.06;;;16.42;100.00
41222;BME280;26952;42.884;23.918;2022-09-09T02:22:20;95884.97;;;16.54;100.00
41222;BME280;26952;42.884;23.918;2022-09-09T02:24:49;95880.47;;;16.54;100.00
41222;BME280;26952;42.884;23.918;2022-09-09T02:27:18;95901.00;;;16.67;100.00
41222;BME280;26952;42.884;23.918;2022-09-09T02:29:45;95886.44;;;16.56;100.00
41222;BME280;26952;42.884;23.918;2022-09-09T02:32:14;95872.03;;;16.51;100.00
41222;BME280;26952;42.884;23.918;2022-09-09T02:34:45;95899.59;;;16.58;100.00
41222;BME280;26952;42.884;23.918;2022-09-09T02:37:15;95886.22;;;16.38;100.00
41222;BME280;26952;42.884;23.918;2022-09-09T02:39:42;95895.22;;;16.44;100.00
41222;BME280;26952;42.884;23.918;2022-09-09T02:42:08;95903.47;;;16.42;100.00
41222;BME280;26952;42.884;23.918;2022-09-09T02:44:33;95892.38;;;16.39;100.00
41222;BME280;26952;42.884;23.918;2022-09-09T02:52:13;95911.28;;;16.44;100.00
41222;BME280;26952;42.884;23.918;2022-09-09T02:54:41;95919.94;;;16.46;100.00
41222;BME280;26952;42.884;23.918;2022-09-09T02:57:12;95914.59;;;16.46;100.00
41222;BME280;26952;42.884;23.918;2022-09-09T02:59:39;95889.53;;;16.34;100.00
41222;BME280;26952;42.884;23.918;2022-09-09T03:02:05;95882.94;;;16.30;100.00
41222;BME280;26952;42.884;23.918;2022-09-09T03:04:31;95889.69;;;16.39;100.00
41222;BME280;26952;42.884;23.918;2022-09-09T03:06:57;95890.31;;;16.41;100.00
41222;BME280;26952;42.884;23.918;2022-09-09T03:09:23;95906.34;;;16.60;100.00
41222;BME280;26952;42.884;23.918;2022-09-09T03:11:49;95883.75;;;16.56;100.00
41222;BME280;26952;42.884;23.918;2022-09-09T03:14:15;95876.34;;;16.58;100.00
41222;BME280;26952;42.884;23.918;2022-09-09T03:16:40;95880.03;;;16.57;100.00
41222;BME280;26952;42.884;23.918;2022-09-09T03:19:07;95889.69;;;16.65;100.00
41222;BME280;26952;42.884;23.918;2022-09-09T03:21:32;95890.72;;;16.64;100.00
41222;BME280;26952;42.884;23.918;2022-09-09T03:23:58;95885.38;;;16.64;100.00
41222;BME280;26952;42.884;23.918;2022-09-09T03:26:23;95881.66;;;16.65;100.00
41222;BME280;26952;42.884;23.918;2022-09-09T03:28:49;95889.25;;;16.68;100.00
41222;BME280;26952;42.884;23.918;2022-09-09T03:31:17;95876.97;;;16.54;100.00
41222;BME280;26952;42.884;23.918;2022-09-09T03:33:44;95874.50;;;16.52;100.00
41222;BME280;26952;42.884;23.918;2022-09-09T03:36:10;95900.78;;;16.62;100.00
41222;BME280;26952;42.884;23.918;2022-09-09T03:38:35;95882.31;;;16.54;100.00
41222;BME280;26952;42.884;23.918;2022-09-09T03:41:01;95892.78;;;16.62;100.00
41222;BME280;26952;42.884;23.918;2022-09-09T03:43:28;95851.28;;;16.27;100.00
41222;BME280;26952;42.884;23.918;2022-09-09T03:45:54;95886.66;;;16.55;100.00
41222;BME280;26952;42.884;23.918;2022-09-09T03:48:22;95889.50;;;16.47;100.00
41222;BME280;26952;42.884;23.918;2022-09-09T03:50:52;95894.47;;;16.50;100.00
41222;BME280;26952;42.884;23.918;2022-09-09T03:53:19;95906.16;;;16.49;100.00
41222;BME280;26952;42.884;23.918;2022-09-09T03:55:50;95889.88;;;16.44;100.00
41222;BME280;26952;42.884;23.918;2022-09-09T03:58:18;95904.31;;;16.56;100.00
41222;BME280;26952;42.884;23.918;2022-09-09T04:01:02;95881.28;;;16.35;100.00
41222;BME280;26952;42.884;23.918;2022-09-09T04:03:28;95891.16;;;16.48;100.00
41222;BME280;26952;42.884;23.918;2022-09-09T04:05:55;95906.38;;;16.54;100.00
41222;BME280;26952;42.884;23.918;2022-09-09T04:08:21;95896.09;;;16.51;100.00
41222;BME280;26952;42.884;23.918;2022-09-09T04:10:48;95914.78;;;16.57;100.00
41222;BME280;26952;42.884;23.918;2022-09-09T04:13:16;95901.84;;;16.54;100.00
41222;BME280;26952;42.884;23.918;2022-09-09T04:15:44;95904.31;;;16.56;100.00
41222;BME280;26952;42.884;23.918;2022-09-09T04:18:10;95903.06;;;16.58;100.00
41222;BME280;26952;42.884;23.918;2022-09-09T04:20:37;95902.47;;;16.63;100.00
41222;BME280;26952;42.884;23.918;2022-09-09T04:23:03;95904.06;;;16.71;100.00
41222;BME280;26952;42.884;23.918;2022-09-09T04:25:28;95913.72;;;16.78;100.00
41222;BME280;26952;42.884;23.918;2022-09-09T04:27:55;95932.22;;;16.86;100.00
41222;BME280;26952;42.884;23.918;2022-09-09T04:30:20;95917.22;;;16.79;100.00
41222;BME280;26952;42.884;23.918;2022-09-09T04:32:46;95936.13;;;16.90;100.00
41222;BME280;26952;42.884;23.918;2022-09-09T04:35:11;95921.72;;;16.91;100.00
41222;BME280;26952;42.884;23.918;2022-09-09T04:37:37;95937.09;;;17.02;100.00
41222;BME280;26952;42.884;23.918;2022-09-09T04:40:02;95941.41;;;17.16;100.00
41222;BME280;26952;42.884;23.918;2022-09-09T04:42:28;95948.34;;;17.30;100.00
41222;BME280;26952;42.884;23.918;2022-09-09T04:44:53;95863.91;;;16.90;100.00
41222;BME280;26952;42.884;23.918;2022-09-09T04:47:19;95942.94;;;17.43;100.00
41222;BME280;26952;42.884;23.918;2022-09-09T04:49:45;95943.53;;;17.58;100.00
41222;BME280;26952;42.884;23.918;2022-09-09T04:52:10;95922.72;;;17.60;100.00
41222;BME280;26952;42.884;23.918;2022-09-09T04:54:35;95930.66;;;17.73;100.00
41222;BME280;26952;42.884;23.918;2022-09-09T04:57:01;95950.38;;;17.85;100.00
41222;BME280;26952;42.884;23.918;2022-09-09T04:59:27;95941.69;;;17.90;100.00
41222;BME280;26952;42.884;23.918;2022-09-09T05:01:52;95940.44;;;17.92;100.00
41222;BME280;26952;42.884;23.918;2022-09-09T05:04:20;95908.13;;;17.87;100.00
41222;BME280;26952;42.884;23.918;2022-09-09T05:06:46;95850.53;;;17.72;100.00
41222;BME280;26952;42.884;23.918;2022-09-09T05:09:11;95876.91;;;17.99;100.00
41222;BME280;26952;42.884;23.918;2022-09-09T05:11:36;95882.19;;;18.13;100.00
41222;BME280;26952;42.884;23.918;2022-09-09T05:14:03;95886.25;;;18.22;100.00
41222;BME280;26952;42.884;23.918;2022-09-09T05:16:30;95892.72;;;18.39;100.00
41222;BME280;26952;42.884;23.918;2022-09-09T05:18:56;95880.06;;;18.46;100.00
41222;BME280;26952;42.884;23.918;2022-09-09T05:21:23;95869.22;;;18.59;100.00
41222;BME280;26952;42.884;23.918;2022-09-09T05:23:50;95880.13;;;18.82;100.00
41222;BME280;26952;42.884;23.918;2022-09-09T05:26:18;95878.56;;;18.92;100.00
41222;BME280;26952;42.884;23.918;2022-09-09T05:28:45;95869.84;;;18.97;100.00
41222;BME280;26952;42.884;23.918;2022-09-09T05:31:12;95878.09;;;19.13;100.00
41222;BME280;26952;42.884;23.918;2022-09-09T05:33:40;95880.59;;;19.33;100.00
41222;BME280;26952;42.884;23.918;2022-09-09T05:36:07;95882.03;;;19.47;100.00
41222;BME280;26952;42.884;23.918;2022-09-09T05:38:34;95883.91;;;19.65;100.00
41222;BME280;26952;42.884;23.918;2022-09-09T05:41:00;95877.13;;;19.74;100.00
41222;BME280;26952;42.884;23.918;2022-09-09T05:43:26;95878.94;;;19.91;100.00
41222;BME280;26952;42.884;23.918;2022-09-09T05:46:06;95879.81;;;20.03;100.00
41222;BME280;26952;42.884;23.918;2022-09-09T05:48:41;95882.31;;;20.16;100.00
41222;BME280;26952;42.884;23.918;2022-09-09T05:51:09;95876.84;;;20.23;100.00
41222;BME280;26952;42.884;23.918;2022-09-09T05:53:35;95878.25;;;20.37;100.00
41222;BME280;26952;42.884;23.918;2022-09-09T05:56:06;95852.66;;;20.34;96.66
41222;BME280;26952;42.884;23.918;2022-09-09T05:58:32;95866.69;;;20.59;96.41
41222;BME280;26952;42.884;23.918;2022-09-09T06:01:06;95867.16;;;20.80;99.20
41222;BME280;26952;42.884;23.918;2022-09-09T06:03:35;95869.28;;;21.01;100.00
41222;BME280;26952;42.884;23.918;2022-09-09T06:06:03;95882.22;;;21.15;99.20
41222;BME280;26952;42.884;23.918;2022-09-09T06:08:33;95875.97;;;21.38;98.12
41222;BME280;26952;42.884;23.918;2022-09-09T06:11:10;95851.94;;;21.48;94.63
41222;BME280;26952;42.884;23.918;2022-09-09T06:13:37;95897.84;;;22.09;95.80
41222;BME280;26952;42.884;23.918;2022-09-09T06:16:09;95891.63;;;22.53;89.88
41222;BME280;26952;42.884;23.918;2022-09-09T06:18:37;95879.13;;;23.02;82.28
41222;BME280;26952;42.884;23.918;2022-09-09T06:21:05;95904.09;;;23.74;86.95
41222;BME280;26952;42.884;23.918;2022-09-09T06:23:31;95898.34;;;24.13;79.50
41222;BME280;26952;42.884;23.918;2022-09-09T06:26:05;95902.28;;;24.59;71.52
41222;BME280;26952;42.884;23.918;2022-09-09T06:28:34;95904.75;;;24.97;77.03
41222;BME280;26952;42.884;23.918;2022-09-09T06:31:10;95898.56;;;25.43;77.60
41222;BME280;26952;42.884;23.918;2022-09-09T06:33:40;95907.41;;;25.85;71.29
41222;BME280;26952;42.884;23.918;2022-09-09T06:36:36;95905.91;;;26.30;64.58
41222;BME280;26952;42.884;23.918;2022-09-09T06:39:02;95896.41;;;26.27;66.35
41222;BME280;26952;42.884;23.918;2022-09-09T06:41:29;95894.53;;;26.48;70.77
41222;BME280;26952;42.884;23.918;2022-09-09T06:43:55;95890.72;;;26.59;60.56
41222;BME280;26952;42.884;23.918;2022-09-09T06:46:23;95897.81;;;26.80;63.39
41222;BME280;26952;42.884;23.918;2022-09-09T06:48:53;95903.78;;;26.87;58.48
41222;BME280;26952;42.884;23.918;2022-09-09T06:51:22;95905.13;;;27.04;63.09
41222;BME280;26952;42.884;23.918;2022-09-09T06:53:50;95898.31;;;27.27;64.39
41222;BME280;26952;42.884;23.918;2022-09-09T06:58:42;95904.69;;;27.71;47.17
41222;BME280;26952;42.884;23.918;2022-09-09T07:01:10;95911.75;;;27.77;56.85
41222;BME280;26952;42.884;23.918;2022-09-09T07:03:37;95906.38;;;27.67;56.79
41222;BME280;26952;42.884;23.918;2022-09-09T07:06:03;95908.56;;;27.55;57.66
41222;BME280;26952;42.884;23.918;2022-09-09T07:08:29;95915.66;;;27.51;61.19
41222;BME280;26952;42.884;23.918;2022-09-09T07:11:04;95907.00;;;27.34;52.96
41222;BME280;26952;42.884;23.918;2022-09-09T07:13:31;95923.78;;;27.56;61.39
41222;BME280;26952;42.884;23.918;2022-09-09T07:16:04;95930.50;;;27.94;55.70
41222;BME280;26952;42.884;23.918;2022-09-09T07:18:29;95927.97;;;28.12;60.96
41222;BME280;26952;42.884;23.918;2022-09-09T07:20:56;95910.06;;;27.96;54.60
41222;BME280;26952;42.884;23.918;2022-09-09T07:23:22;95925.59;;;27.86;57.48
41222;BME280;26952;42.884;23.918;2022-09-09T07:25:48;95868.88;;;27.49;63.57
41222;BME280;26952;42.884;23.918;2022-09-09T07:28:14;95906.44;;;28.16;54.87
41222;BME280;26952;42.884;23.918;2022-09-09T07:30:39;95920.66;;;28.52;59.73
41222;BME280;26952;42.884;23.918;2022-09-09T07:33:05;95906.97;;;28.57;61.99
41222;BME280;26952;42.884;23.918;2022-09-09T07:35:31;95923.59;;;28.60;49.83
41222;BME280;26952;42.884;23.918;2022-09-09T07:37:56;95914.53;;;28.65;56.87
41222;BME280;26952;42.884;23.918;2022-09-09T07:40:23;95918.34;;;28.69;54.90
41222;BME280;26952;42.884;23.918;2022-09-09T07:42:49;95913.34;;;28.81;48.61
41222;BME280;26952;42.884;23.918;2022-09-09T07:45:14;95905.84;;;28.96;54.57
41222;BME280;26952;42.884;23.918;2022-09-09T07:47:40;95910.34;;;29.16;53.23
41222;BME280;26952;42.884;23.918;2022-09-09T07:50:08;95913.25;;;29.48;53.00
41222;BME280;26952;42.884;23.918;2022-09-09T07:52:34;95911.44;;;29.67;44.72
41222;BME280;26952;42.884;23.918;2022-09-09T07:54:59;95903.28;;;29.62;52.63
41222;BME280;26952;42.884;23.918;2022-09-09T07:57:27;95884.81;;;29.54;52.67
41222;BME280;26952;42.884;23.918;2022-09-09T07:59:55;95873.34;;;29.57;43.05
41222;BME280;26952;42.884;23.918;2022-09-09T08:02:21;95896.69;;;29.68;44.30
41222;BME280;26952;42.884;23.918;2022-09-09T08:04:48;95887.03;;;29.52;41.23
41222;BME280;26952;42.884;23.918;2022-09-09T08:07:13;95891.44;;;29.48;42.47
41222;BME280;26952;42.884;23.918;2022-09-09T08:09:38;95901.31;;;29.91;45.43
41222;BME280;26952;42.884;23.918;2022-09-09T08:12:04;95899.28;;;30.02;43.27
41222;BME280;26952;42.884;23.918;2022-09-09T08:14:31;95890.81;;;29.79;49.81
41222;BME280;26952;42.884;23.918;2022-09-09T08:16:57;95889.00;;;29.94;46.52
41222;BME280;26952;42.884;23.918;2022-09-09T08:19:23;95882.94;;;29.97;41.23
41222;BME280;26952;42.884;23.918;2022-09-09T08:21:48;95885.44;;;30.35;44.93
41222;BME280;26952;42.884;23.918;2022-09-09T08:24:14;95888.69;;;30.37;50.81
41222;BME280;26952;42.884;23.918;2022-09-09T08:26:44;95886.47;;;30.39;47.00
41222;BME280;26952;42.884;23.918;2022-09-09T08:29:11;95887.41;;;30.67;39.72
41222;BME280;26952;42.884;23.918;2022-09-09T08:31:46;95894.81;;;30.85;39.20
41222;BME280;26952;42.884;23.918;2022-09-09T08:34:13;95892.59;;;31.00;44.97
41222;BME280;26952;42.884;23.918;2022-09-09T08:36:41;95902.03;;;30.94;38.78
41222;BME280;26952;42.884;23.918;2022-09-09T08:39:09;95901.84;;;31.37;39.15
41222;BME280;26952;42.884;23.918;2022-09-09T08:52:25;95905.63;;;30.16;42.33
41222;BME280;26952;42.884;23.918;2022-09-09T08:54:51;95889.88;;;30.08;43.08
41222;BME280;26952;42.884;23.918;2022-09-09T08:57:26;95901.50;;;30.18;46.27
41222;BME280;26952;42.884;23.918;2022-09-09T08:59:54;95894.88;;;30.61;42.56
41222;BME280;26952;42.884;23.918;2022-09-09T09:02:44;95910.50;;;30.74;43.54
41222;BME280;26952;42.884;23.918;2022-09-09T09:05:32;95890.25;;;30.75;42.74
41222;BME280;26952;42.884;23.918;2022-09-09T09:10:49;95885.53;;;31.72;45.32
41222;BME280;26952;42.884;23.918;2022-09-09T09:13:58;95884.41;;;32.14;44.01
41222;BME280;26952;42.884;23.918;2022-09-09T09:16:51;95887.66;;;31.62;39.71
41222;BME280;26952;42.884;23.918;2022-09-09T09:19:17;95856.84;;;31.97;45.33
41222;BME280;26952;42.884;23.918;2022-09-09T09:29:54;95875.22;;;31.24;38.44
41222;BME280;26952;42.884;23.918;2022-09-09T09:32:23;95835.25;;;30.95;40.84
41222;BME280;26952;42.884;23.918;2022-09-09T09:34:58;95864.50;;;31.27;39.11
41222;BME280;26952;42.884;23.918;2022-09-09T09:37:31;95831.44;;;31.24;43.30
41222;BME280;26952;42.884;23.918;2022-09-09T09:40:13;95855.19;;;32.09;48.04
41222;BME280;26952;42.884;23.918;2022-09-09T09:42:54;95867.72;;;32.24;37.46
41222;BME280;26952;42.884;23.918;2022-09-09T09:45:32;95855.88;;;32.15;38.82
41222;BME280;26952;42.884;23.918;2022-09-09T09:48:04;95855.53;;;32.30;36.67
41222;BME280;26952;42.884;23.918;2022-09-09T09:50:31;95855.91;;;32.37;37.36
41222;BME280;26952;42.884;23.918;2022-09-09T09:53:03;95860.38;;;31.84;36.77
41222;BME280;26952;42.884;23.918;2022-09-09T09:55:31;95851.78;;;31.50;38.56
41222;BME280;26952;42.884;23.918;2022-09-09T09:58:03;95851.56;;;30.68;39.67
41222;BME280;26952;42.884;23.918;2022-09-09T10:00:29;95854.91;;;30.47;39.35
41222;BME280;26952;42.884;23.918;2022-09-09T10:02:55;95854.34;;;30.82;38.02
41222;BME280;26952;42.884;23.918;2022-09-09T10:05:26;95837.69;;;30.83;38.08
41222;BME280;26952;42.884;23.918;2022-09-09T10:08:10;95823.09;;;31.01;37.37
41222;BME280;26952;42.884;23.918;2022-09-09T10:21:16;95851.94;;;31.53;39.41
41222;BME280;26952;42.884;23.918;2022-09-09T10:37:28;95844.59;;;30.94;43.21
41222;BME280;26952;42.884;23.918;2022-09-09T10:40:08;95839.00;;;30.67;40.23
41222;BME280;26952;42.884;23.918;2022-09-09T10:42:41;95834.22;;;30.78;44.08
41222;BME280;26952;42.884;23.918;2022-09-09T10:45:18;95856.56;;;31.26;49.44
41222;BME280;26952;42.884;23.918;2022-09-09T10:50:52;95850.19;;;31.17;51.83
41222;BME280;26952;42.884;23.918;2022-09-09T10:56:12;95853.47;;;30.86;53.61
41222;BME280;26952;42.884;23.918;2022-09-09T10:58:44;95864.41;;;30.86;55.77
41222;BME280;26952;42.884;23.918;2022-09-09T11:01:20;95848.09;;;30.63;59.18
41222;BME280;26952;42.884;23.918;2022-09-09T11:03:54;95855.38;;;30.54;55.43
41222;BME280;26952;42.884;23.918;2022-09-09T11:06:28;95857.47;;;30.25;56.60
41222;BME280;26952;42.884;23.918;2022-09-09T11:08:56;95864.41;;;29.94;62.02
41222;BME280;26952;42.884;23.918;2022-09-09T11:11:37;95868.22;;;29.74;58.88
41222;BME280;26952;42.884;23.918;2022-09-09T11:14:36;95868.88;;;29.66;63.05
41222;BME280;26952;42.884;23.918;2022-09-09T11:17:10;95879.97;;;29.74;59.08
41222;BME280;26952;42.884;23.918;2022-09-09T11:19:39;95870.00;;;29.36;51.38
41222;BME280;26952;42.884;23.918;2022-09-09T11:22:14;95867.47;;;28.88;54.54
41222;BME280;26952;42.884;23.918;2022-09-09T11:24:45;95869.22;;;28.79;48.02
41222;BME280;26952;42.884;23.918;2022-09-09T11:27:20;95867.97;;;28.66;46.89
41222;BME280;26952;42.884;23.918;2022-09-09T11:30:17;95865.91;;;28.82;51.96
41222;BME280;26952;42.884;23.918;2022-09-09T11:38:25;95862.06;;;29.16;51.88
41222;BME280;26952;42.884;23.918;2022-09-09T11:41:08;95868.91;;;28.80;49.86
41222;BME280;26952;42.884;23.918;2022-09-09T11:43:44;95869.91;;;28.22;50.31
41222;BME280;26952;42.884;23.918;2022-09-09T11:46:11;95869.41;;;27.51;53.93
41222;BME280;26952;42.884;23.918;2022-09-09T11:48:45;95865.00;;;27.70;53.81
41222;BME280;26952;42.884;23.918;2022-09-09T11:51:26;95860.47;;;28.04;56.71
41222;BME280;26952;42.884;23.918;2022-09-09T11:53:54;95859.38;;;28.44;59.80
41222;BME280;26952;42.884;23.918;2022-09-09T11:58:57;95836.28;;;28.99;57.92
41222;BME280;26952;42.884;23.918;2022-09-09T12:01:33;95822.66;;;28.99;57.17
41222;BME280;26952;42.884;23.918;2022-09-09T12:04:16;95864.09;;;29.29;61.59
41222;BME280;26952;42.884;23.918;2022-09-09T12:12:32;95846.50;;;29.17;64.51
41222;BME280;26952;42.884;23.918;2022-09-09T12:15:17;95845.81;;;29.30;66.05
41222;BME280;26952;42.884;23.918;2022-09-09T12:17:53;95833.81;;;29.31;61.43
41222;BME280;26952;42.884;23.918;2022-09-09T12:23:18;95829.94;;;28.80;50.27
41222;BME280;26952;42.884;23.918;2022-09-09T12:32:05;95831.91;;;28.74;68.20
41222;BME280;26952;42.884;23.918;2022-09-09T12:34:59;95829.56;;;28.63;67.95
41222;BME280;26952;42.884;23.918;2022-09-09T12:37:38;95837.81;;;28.52;71.06
41222;BME280;26952;42.884;23.918;2022-09-09T12:40:20;95817.75;;;28.38;72.63
41222;BME280;26952;42.884;23.918;2022-09-09T12:42:45;95809.19;;;28.16;65.02
41222;BME280;26952;42.884;23.918;2022-09-09T12:45:22;95817.41;;;28.11;64.24
41222;BME280;26952;42.884;23.918;2022-09-09T12:50:22;95814.00;;;28.29;70.11
41222;BME280;26952;42.884;23.918;2022-09-09T12:52:56;95809.38;;;28.64;64.88
41222;BME280;26952;42.884;23.918;2022-09-09T12:55:31;95793.28;;;28.91;63.21
41222;BME280;26952;42.884;23.918;2022-09-09T12:57:59;95780.09;;;29.03;55.05
41222;BME280;26952;42.884;23.918;2022-09-09T13:00:26;95789.44;;;29.44;55.39
41222;BME280;26952;42.884;23.918;2022-09-09T13:02:58;95786.44;;;29.64;51.73
41222;BME280;26952;42.884;23.918;2022-09-09T13:05:28;95784.72;;;29.92;50.69
41222;BME280;26952;42.884;23.918;2022-09-09T13:08:03;95783.66;;;30.06;52.67
41222;BME280;26952;42.884;23.918;2022-09-09T13:10:32;95786.03;;;30.13;48.60
41222;BME280;26952;42.884;23.918;2022-09-09T13:12:59;95786.78;;;30.18;47.64
41222;BME280;26952;42.884;23.918;2022-09-09T13:15:27;95762.19;;;30.00;48.10
41222;BME280;26952;42.884;23.918;2022-09-09T13:17:56;95775.94;;;29.34;50.74
41222;BME280;26952;42.884;23.918;2022-09-09T13:20:23;95756.06;;;29.05;49.68
41222;BME280;26952;42.884;23.918;2022-09-09T13:22:51;95766.16;;;29.28;53.64
41222;BME280;26952;42.884;23.918;2022-09-09T13:25:24;95771.44;;;29.43;50.69
41222;BME280;26952;42.884;23.918;2022-09-09T13:28:02;95765.09;;;29.71;51.90
41222;BME280;26952;42.884;23.918;2022-09-09T13:30:34;95751.97;;;29.73;49.74
41222;BME280;26952;42.884;23.918;2022-09-09T13:36:07;95757.00;;;29.19;48.79
41222;BME280;26952;42.884;23.918;2022-09-09T13:38:33;95761.22;;;29.30;49.50
41222;BME280;26952;42.884;23.918;2022-09-09T13:41:06;95763.63;;;29.13;52.69
41222;BME280;26952;42.884;23.918;2022-09-09T13:43:44;95755.78;;;29.06;58.13
41222;BME280;26952;42.884;23.918;2022-09-09T13:46:33;95773.16;;;29.15;56.08
41222;BME280;26952;42.884;23.918;2022-09-09T13:54:04;95752.69;;;28.89;60.73
41222;BME280;26952;42.884;23.918;2022-09-09T13:56:34;95746.41;;;28.94;65.37
41222;BME280;26952;42.884;23.918;2022-09-09T13:59:00;95770.72;;;29.14;56.60
41222;BME280;26952;42.884;23.918;2022-09-09T14:01:26;95763.69;;;29.08;60.98
41222;BME280;26952;42.884;23.918;2022-09-09T14:03:53;95758.78;;;29.05;63.67
41222;BME280;26952;42.884;23.918;2022-09-09T14:06:18;95766.63;;;28.88;63.73
41222;BME280;26952;42.884;23.918;2022-09-09T14:08:44;95750.00;;;28.61;48.65
41222;BME280;26952;42.884;23.918;2022-09-09T14:11:12;95759.28;;;28.60;66.38
41222;BME280;26952;42.884;23.918;2022-09-09T14:13:38;95764.34;;;28.09;52.40
41222;BME280;26952;42.884;23.918;2022-09-09T14:16:04;95742.38;;;27.95;53.38
41222;BME280;26952;42.884;23.918;2022-09-09T14:18:29;95756.72;;;28.11;57.89
41222;BME280;26952;42.884;23.918;2022-09-09T14:20:55;95752.63;;;28.08;63.00
41222;BME280;26952;42.884;23.918;2022-09-09T14:23:20;95765.63;;;28.16;57.48
41222;BME280;26952;42.884;23.918;2022-09-09T14:25:47;95743.81;;;28.21;53.79
41222;BME280;26952;42.884;23.918;2022-09-09T14:28:13;95748.63;;;28.29;59.58
41222;BME280;26952;42.884;23.918;2022-09-09T14:30:40;95748.50;;;28.49;65.48
41222;BME280;26952;42.884;23.918;2022-09-09T14:33:07;95745.28;;;28.37;60.69
41222;BME280;26952;42.884;23.918;2022-09-09T14:35:33;95752.53;;;28.52;56.54
41222;BME280;26952;42.884;23.918;2022-09-09T14:37:59;95751.66;;;28.57;64.03
41222;BME280;26952;42.884;23.918;2022-09-09T14:40:26;95751.38;;;28.58;59.72
41222;BME280;26952;42.884;23.918;2022-09-09T14:42:52;95743.03;;;28.49;60.90
41222;BME280;26952;42.884;23.918;2022-09-09T14:45:18;95744.91;;;28.54;60.68
41222;BME280;26952;42.884;23.918;2022-09-09T14:47:43;95744.91;;;28.54;58.26
41222;BME280;26952;42.884;23.918;2022-09-09T14:50:10;95737.06;;;28.42;57.46
41222;BME280;26952;42.884;23.918;2022-09-09T14:52:37;95733.00;;;28.11;55.14
41222;BME280;26952;42.884;23.918;2022-09-09T14:55:03;95748.13;;;28.22;58.35
41222;BME280;26952;42.884;23.918;2022-09-09T14:57:28;95740.94;;;28.36;59.52
41222;BME280;26952;42.884;23.918;2022-09-09T14:59:54;95720.53;;;28.34;61.97
41222;BME280;26952;42.884;23.918;2022-09-09T15:02:19;95748.06;;;28.32;58.69
41222;BME280;26952;42.884;23.918;2022-09-09T15:04:44;95741.50;;;28.38;54.61
41222;BME280;26952;42.884;23.918;2022-09-09T15:07:11;95738.06;;;28.23;56.42
41222;BME280;26952;42.884;23.918;2022-09-09T15:09:36;95765.56;;;28.26;58.36
41222;BME280;26952;42.884;23.918;2022-09-09T15:12:02;95742.75;;;28.17;61.19
41222;BME280;26952;42.884;23.918;2022-09-09T15:14:29;95725.97;;;28.05;60.53
41222;BME280;26952;42.884;23.918;2022-09-09T15:16:55;95766.66;;;28.25;60.49